Time;durP1;ratioP1;P1;durP2;ratioP2;P2;SDS_P1;SDS_P2;PMS_P1;PMS_P2;Temp;Humidity;BMP_temperature;BMP_pressure;BME280_temperature;BME280_humidity;BME280_pressure;Samples;Min_cycle;Max_cycle;Signal;HPM_P1;HPM_P2
2022/11/24 00:00:50;;;;;;;16.50;10.25;;;;;;;6.05;92.01;97275.97;5003757;28;20474;-84
2022/11/24 00:03:16;;;;;;;15.30;8.75;;;;;;;6.06;91.77;97262.78;5002442;28;20042;-84
2022/11/24 00:05:41;;;;;;;12.63;8.98;;;;;;;6.01;91.58;97278.16;5004343;28;20087;-84
2022/11/24 00:08:08;;;;;;;12.15;8.57;;;;;;;6.00;92.40;97276.56;5002399;28;20065;-84
2022/11/24 00:10:33;;;;;;;12.32;7.65;;;;;;;6.05;92.34;97287.16;5002914;28;20038;-84
2022/11/24 00:12:59;;;;;;;11.88;7.95;;;;;;;6.10;92.42;97289.22;5017652;28;20038;-84
2022/11/24 00:15:24;;;;;;;12.27;8.05;;;;;;;6.19;92.36;97282.88;5003083;28;20044;-83
2022/11/24 00:17:49;;;;;;;13.05;8.40;;;;;;;6.26;91.85;97293.31;5003334;28;20041;-84
2022/11/24 00:20:15;;;;;;;12.63;8.45;;;;;;;6.32;91.57;97292.56;5002444;28;20123;-84
2022/11/24 00:22:41;;;;;;;11.25;7.65;;;;;;;6.37;91.18;97298.00;5006743;28;20183;-84
2022/11/24 00:25:07;;;;;;;14.02;8.55;;;;;;;6.37;90.71;97298.81;5000537;28;20033;-84
2022/11/24 00:27:32;;;;;;;10.70;7.95;;;;;;;6.39;90.54;97298.59;5001076;28;20045;-83
2022/11/24 00:29:58;;;;;;;14.23;7.70;;;;;;;6.40;90.47;97308.81;5002347;28;20452;-84
2022/11/24 00:32:28;;;;;;;12.48;8.00;;;;;;;6.46;90.25;97307.25;5002177;28;20042;-84
2022/11/24 00:34:53;;;;;;;12.10;8.00;;;;;;;6.43;90.63;97315.47;5003413;28;20077;-83
2022/11/24 00:37:19;;;;;;;11.82;7.85;;;;;;;6.47;90.07;97311.47;5002353;28;20128;-83
2022/11/24 00:39:44;;;;;;;15.07;7.85;;;;;;;6.53;90.12;97321.09;5001613;28;20066;-84
2022/11/24 00:42:09;;;;;;;10.00;7.85;;;;;;;6.54;90.08;97325.34;5002165;28;20054;-84
2022/11/24 00:44:35;;;;;;;13.75;7.93;;;;;;;6.53;89.62;97326.31;5001348;28;20048;-84
2022/11/24 00:47:00;;;;;;;12.40;8.45;;;;;;;6.57;89.85;97324.94;5001714;28;20141;-84
2022/11/24 00:49:26;;;;;;;12.80;8.27;;;;;;;6.57;89.35;97335.38;5003514;28;20410;-84
2022/11/24 00:51:51;;;;;;;12.13;8.20;;;;;;;6.56;89.25;97335.56;4999948;28;20116;-84
2022/11/24 00:54:17;;;;;;;8.73;6.57;;;;;;;6.37;89.95;97332.66;5004980;28;20038;-84
2022/11/24 00:56:43;;;;;;;10.07;6.70;;;;;;;6.38;90.87;97336.06;5006185;28;20116;-84
2022/11/24 00:59:08;;;;;;;10.38;6.65;;;;;;;6.31;91.97;97332.63;5003487;28;20160;-84
2022/11/24 01:01:34;;;;;;;12.75;6.68;;;;;;;6.29;92.93;97332.78;5002465;28;20042;-84
2022/11/24 01:04:00;;;;;;;10.68;6.72;;;;;;;6.27;93.27;97341.81;5000885;28;20026;-84
2022/11/24 01:06:28;;;;;;;12.63;6.68;;;;;;;6.29;93.62;97345.00;5003260;28;20056;-84
2022/11/24 01:08:56;;;;;;;13.70;6.10;;;;;;;6.31;94.26;97356.06;5003477;28;20042;-84
2022/11/24 01:12:00;;;;;;;15.55;5.32;;;;;;;6.36;94.77;97358.91;5004547;28;20034;-84
2022/11/24 01:14:18;;;;;;;8.82;4.72;;;;;;;6.40;94.73;97362.72;5004571;28;20042;-84
2022/11/24 01:16:43;;;;;;;9.25;5.18;;;;;;;6.43;95.05;97365.75;5004175;28;20092;-84
2022/11/24 01:19:09;;;;;;;5.82;4.40;;;;;;;6.46;94.96;97366.34;5003455;28;20517;-84
2022/11/24 01:21:34;;;;;;;9.07;4.50;;;;;;;6.51;95.19;97372.59;5002536;28;20034;-83
2022/11/24 01:24:00;;;;;;;11.23;4.68;;;;;;;6.57;95.06;97374.44;4999703;28;20048;-84
2022/11/24 01:26:25;;;;;;;6.28;3.88;;;;;;;6.60;95.16;97379.28;5001116;28;20034;-83
2022/11/24 01:28:56;;;;;;;8.40;4.05;;;;;;;6.62;95.60;97366.88;5001806;28;20037;-83
2022/11/24 01:31:23;;;;;;;;;;;;;;;6.69;95.26;97374.72;4999876;28;20116;-84
2022/11/24 01:33:49;;;;;;;7.55;4.00;;;;;;;6.70;94.75;97377.13;5001918;28;20008;-83
2022/11/24 01:36:14;;;;;;;7.78;4.40;;;;;;;6.77;94.58;97373.75;5001617;28;20608;-84
2022/11/24 01:38:40;;;;;;;8.43;4.20;;;;;;;6.82;94.26;97381.78;5002875;28;20038;-84
2022/11/24 01:41:10;;;;;;;9.15;4.38;;;;;;;6.84;94.24;97379.81;5004467;28;20037;-84
2022/11/24 01:43:37;;;;;;;9.30;3.87;;;;;;;6.85;94.24;97391.84;5002113;28;20085;-83
2022/11/24 01:46:23;;;;;;;10.82;4.40;;;;;;;6.80;94.38;97383.81;5000466;28;20603;-84
2022/11/24 01:49:07;;;;;;;8.13;4.55;;;;;;;6.90;94.45;97399.91;5000509;28;20355;-83
2022/11/24 01:51:38;;;;;;;9.32;3.85;;;;;;;6.94;93.86;97393.28;4999841;28;20038;-83
2022/11/24 01:54:29;;;;;;;9.68;4.18;;;;;;;6.96;93.85;97399.13;5001721;28;20046;-84
2022/11/24 01:57:05;;;;;;;8.90;3.72;;;;;;;7.00;93.72;97394.31;5003194;28;20382;-83
2022/11/24 01:59:31;;;;;;;8.35;3.80;;;;;;;6.97;93.50;97400.75;5001848;28;20082;-84
2022/11/24 02:01:57;;;;;;;10.85;3.60;;;;;;;6.99;93.50;97406.56;5003264;28;20551;-84
2022/11/24 02:04:30;;;;;;;6.32;3.72;;;;;;;6.98;93.53;97407.56;5002969;28;20037;-83
2022/11/24 02:07:01;;;;;;;7.60;3.58;;;;;;;6.99;93.67;97406.56;5003282;28;20033;-84
2022/11/24 02:09:54;;;;;;;9.38;3.53;;;;;;;7.01;94.11;97407.16;5005980;28;20672;-83
2022/11/24 02:12:23;;;;;;;9.20;3.70;;;;;;;7.02;93.78;97411.41;5002775;28;20121;-83
2022/11/24 02:14:50;;;;;;;9.48;3.58;;;;;;;6.97;93.66;97405.94;5005226;28;20038;-84
2022/11/24 02:17:16;;;;;;;10.30;4.22;;;;;;;7.01;93.79;97406.34;5006602;28;20033;-84
2022/11/24 02:19:57;;;;;;;7.93;3.90;;;;;;;7.02;93.56;97414.00;5004137;28;20087;-84
2022/11/24 02:23:17;;;;;;;11.75;4.22;;;;;;;7.06;93.44;97415.19;5004539;28;20080;-84
2022/11/24 02:26:05;;;;;;;6.57;3.72;;;;;;;7.07;93.03;97411.59;5005706;28;20044;-84
2022/11/24 02:28:32;;;;;;;11.70;4.20;;;;;;;7.04;93.02;97406.78;5004093;28;20038;-83
2022/11/24 02:30:59;;;;;;;9.55;3.95;;;;;;;7.08;92.73;97417.63;5005319;28;20049;-83
2022/11/24 02:33:26;;;;;;;9.02;3.65;;;;;;;7.09;93.07;97419.25;5003737;28;20039;-84
2022/11/24 02:35:52;;;;;;;6.25;3.63;;;;;;;7.10;93.07;97421.66;5003594;28;20030;-84
2022/11/24 02:38:18;;;;;;;11.02;4.03;;;;;;;7.09;92.66;97420.03;5005029;28;20529;-84
2022/11/24 02:40:48;;;;;;;12.63;3.80;;;;;;;7.04;92.65;97419.81;5004249;28;20030;-84
2022/11/24 02:43:21;;;;;;;6.97;3.67;;;;;;;7.02;92.82;97413.16;5001787;28;20033;-83
2022/11/24 02:45:46;;;;;;;8.27;3.50;;;;;;;6.97;93.23;97426.81;5001535;28;20068;-84
2022/11/24 02:48:15;;;;;;;9.93;4.25;;;;;;;7.01;93.25;97435.84;5004642;28;20033;-84
2022/11/24 02:50:41;;;;;;;9.63;4.13;;;;;;;7.07;93.05;97440.28;5003776;28;20027;-83
2022/11/24 02:53:07;;;;;;;9.15;4.10;;;;;;;7.03;93.24;97435.66;5006825;28;20034;-84
2022/11/24 02:55:32;;;;;;;12.10;4.03;;;;;;;7.05;93.07;97429.25;5003673;28;20041;-84
2022/11/24 02:57:58;;;;;;;7.15;3.17;;;;;;;7.06;92.98;97430.84;5004923;28;20455;-84
2022/11/24 03:00:24;;;;;;;11.38;3.65;;;;;;;7.15;93.11;97449.75;5003264;28;20112;-84
2022/11/24 03:02:49;;;;;;;6.47;3.05;;;;;;;7.13;93.13;97436.91;5005109;28;20026;-84
2022/11/24 03:05:15;;;;;;;8.02;3.35;;;;;;;7.18;92.93;97447.56;5002387;28;20033;-84
2022/11/24 03:07:41;;;;;;;7.38;3.10;;;;;;;7.12;92.78;97440.50;5005660;28;20034;-84
2022/11/24 03:10:07;;;;;;;6.55;3.15;;;;;;;7.17;92.73;97442.53;5006278;28;20030;-84
2022/11/24 03:12:32;;;;;;;6.10;2.83;;;;;;;7.23;92.81;97453.00;5004173;28;20397;-84
2022/11/24 03:14:58;;;;;;;7.68;2.97;;;;;;;7.21;92.44;97447.19;5004441;28;20045;-84
2022/11/24 03:17:26;;;;;;;10.32;3.10;;;;;;;7.24;92.56;97453.81;5003586;28;20034;-84
2022/11/24 03:19:51;;;;;;;8.43;2.83;;;;;;;7.27;92.51;97457.84;5002645;28;20053;-83
2022/11/24 03:22:17;;;;;;;12.35;3.67;;;;;;;7.28;92.33;97449.00;5003666;28;20081;-84
2022/11/24 03:24:43;;;;;;;10.93;3.88;;;;;;;7.34;92.10;97463.88;5002150;28;20087;-83
2022/11/24 03:27:08;;;;;;;12.15;3.15;;;;;;;7.35;92.15;97470.72;5002939;28;20462;-83
2022/11/24 03:29:33;;;;;;;12.32;3.40;;;;;;;7.37;91.97;97468.69;5002700;28;20101;-84
2022/11/24 03:31:59;;;;;;;9.73;3.10;;;;;;;7.34;91.70;97458.66;5003862;28;20032;-84
2022/11/24 03:34:25;;;;;;;13.77;3.67;;;;;;;7.45;91.50;97476.38;5002912;28;20509;-84
2022/11/24 03:36:50;;;;;;;14.80;3.78;;;;;;;7.49;92.13;97467.16;5004030;28;20073;-84
2022/11/24 03:39:16;;;;;;;7.90;3.22;;;;;;;7.53;91.59;97475.41;5002875;28;20161;-83
2022/11/24 03:41:41;;;;;;;7.18;2.70;;;;;;;7.59;91.61;97478.03;5003488;28;20030;-84
2022/11/24 03:44:06;;;;;;;4.78;2.70;;;;;;;7.61;91.67;97476.03;4998578;28;20109;-84
2022/11/24 03:46:32;;;;;;;5.35;2.67;;;;;;;7.70;91.95;97472.25;5001800;28;20041;-84
2022/11/24 03:48:58;;;;;;;7.40;2.83;;;;;;;7.65;91.12;97472.03;5003947;28;20033;-84
2022/11/24 03:51:23;;;;;;;7.50;3.10;;;;;;;7.68;90.54;97481.28;5004235;28;20040;-84
2022/11/24 03:53:49;;;;;;;6.30;2.80;;;;;;;7.66;90.45;97484.06;5004304;28;20502;-83
2022/11/24 03:56:15;;;;;;;8.43;2.90;;;;;;;7.62;90.54;97479.47;5001287;28;20038;-84
2022/11/24 03:58:40;;;;;;;9.50;3.50;;;;;;;7.63;90.84;97487.09;5003878;28;20151;-83
2022/11/24 04:01:06;;;;;;;11.68;2.75;;;;;;;7.59;90.43;97487.66;5003271;28;20117;-83
2022/11/24 04:03:31;;;;;;;8.40;2.90;;;;;;;7.53;90.95;97485.84;5002743;28;20034;-84
2022/11/24 04:05:57;;;;;;;7.75;2.83;;;;;;;7.59;90.79;97492.88;5003321;28;20108;-84
2022/11/24 04:08:22;;;;;;;9.18;3.13;;;;;;;7.58;90.68;97486.06;5001442;28;20044;-84
2022/11/24 04:10:51;;;;;;;11.00;3.20;;;;;;;7.68;90.48;97495.16;5002823;28;20034;-84
2022/11/24 04:13:20;;;;;;;3.80;2.40;;;;;;;7.68;90.18;97505.59;5002189;28;20458;-83
2022/11/24 04:15:46;;;;;;;10.05;3.22;;;;;;;7.65;90.21;97492.91;5005498;28;20124;-84
2022/11/24 04:18:15;;;;;;;11.45;3.15;;;;;;;7.71;90.06;97510.41;5000824;28;20073;-84
2022/11/24 04:20:41;;;;;;;9.57;3.28;;;;;;;7.73;90.01;97508.38;5003095;28;20498;-84
2022/11/24 04:23:08;;;;;;;8.82;3.40;;;;;;;7.68;90.08;97505.59;5000745;28;20034;-83
2022/11/24 04:25:34;;;;;;;9.38;3.53;;;;;;;7.69;90.21;97509.81;5000084;28;20042;-84
2022/11/24 04:28:00;;;;;;;10.90;3.50;;;;;;;7.62;90.57;97505.56;5001174;28;20037;-84
2022/11/24 04:30:27;;;;;;;9.35;2.95;;;;;;;7.68;90.57;97517.84;4999868;28;20522;-84
2022/11/24 04:32:53;;;;;;;7.47;3.20;;;;;;;7.66;90.25;97515.41;5002351;28;20034;-84
2022/11/24 04:35:20;;;;;;;7.00;3.20;;;;;;;7.67;90.42;97527.44;5003139;28;20037;-84
2022/11/24 04:37:46;;;;;;;9.77;3.78;;;;;;;7.72;90.36;97524.25;5002205;28;20084;-84
2022/11/24 04:40:12;;;;;;;10.48;3.33;;;;;;;7.73;90.08;97531.88;5002446;28;20026;-84
2022/11/24 04:42:38;;;;;;;8.48;3.28;;;;;;;7.72;90.14;97532.88;5003386;28;20056;-84
2022/11/24 04:45:05;;;;;;;5.80;2.83;;;;;;;7.70;90.52;97532.28;4999485;28;20034;-83
2022/11/24 04:47:32;;;;;;;12.55;3.50;;;;;;;7.69;90.69;97535.91;5003254;28;20053;-84
2022/11/24 04:49:57;;;;;;;10.60;3.28;;;;;;;7.69;90.48;97541.13;5002742;28;20362;-84
2022/11/24 04:52:24;;;;;;;10.70;3.15;;;;;;;7.71;90.34;97544.34;5004829;28;20049;-84
2022/11/24 04:54:50;;;;;;;12.93;3.55;;;;;;;7.76;90.18;97547.16;5004098;28;20026;-84
2022/11/24 04:57:23;;;;;;;9.05;3.17;;;;;;;7.77;90.09;97559.22;5005117;28;20108;-84
2022/11/24 04:59:49;;;;;;;8.73;3.40;;;;;;;7.77;90.40;97546.16;5003371;28;20167;-84
2022/11/24 05:02:15;;;;;;;15.57;3.25;;;;;;;7.85;89.81;97554.81;5002139;28;20038;-84
2022/11/24 05:04:41;;;;;;;8.00;3.40;;;;;;;7.87;89.80;97566.69;5003661;28;20045;-84
2022/11/24 05:07:10;;;;;;;11.38;3.13;;;;;;;7.83;90.00;97565.47;5002182;28;20031;-84
2022/11/24 05:10:33;;;;;;;10.35;4.00;;;;;;;7.82;90.09;97571.69;5002884;28;20126;-84
2022/11/24 05:12:22;;;;;;;12.77;3.70;;;;;;;7.70;90.32;97555.78;5002466;28;20923;-84
2022/11/24 05:14:47;;;;;;;11.35;3.65;;;;;;;7.83;89.97;97569.88;5006216;28;20038;-84
2022/11/24 05:17:14;;;;;;;10.20;3.50;;;;;;;7.83;89.90;97575.09;5002000;28;20041;-83
2022/11/24 05:19:39;;;;;;;11.65;3.83;;;;;;;7.82;89.61;97565.66;5002152;28;20034;-84
2022/11/24 05:22:05;;;;;;;16.27;4.47;;;;;;;7.83;89.68;97570.69;5002607;28;20493;-84
2022/11/24 05:24:30;;;;;;;13.50;4.03;;;;;;;7.82;89.05;97582.13;5002738;28;20038;-84
2022/11/24 05:26:56;;;;;;;11.75;5.00;;;;;;;7.85;89.02;97580.94;5002048;28;20117;-83
2022/11/24 05:29:21;;;;;;;7.53;2.83;;;;;;;7.86;88.72;97577.34;5001391;28;20093;-84
2022/11/24 05:31:46;;;;;;;15.15;3.60;;;;;;;7.89;88.07;97566.50;5002786;28;20057;-84
2022/11/24 05:34:13;;;;;;;8.50;3.67;;;;;;;7.89;88.61;97579.56;5002727;28;20120;-84
2022/11/24 05:36:53;;;;;;;9.65;3.03;;;;;;;7.87;87.92;97578.94;5002324;28;20030;-84
2022/11/24 05:39:20;;;;;;;15.95;3.65;;;;;;;7.92;87.91;97582.59;5000256;28;20044;-84
2022/11/24 05:41:46;;;;;;;13.73;3.47;;;;;;;7.92;88.09;97584.41;5003914;28;20382;-84
2022/11/24 05:44:12;;;;;;;8.65;3.70;;;;;;;7.87;87.68;97586.78;5001741;28;20041;-84
2022/11/24 05:46:37;;;;;;;15.40;3.65;;;;;;;7.85;88.17;97596.59;5006893;28;20042;-84
2022/11/24 05:49:03;;;;;;;10.93;3.33;;;;;;;7.85;88.15;97594.78;5005174;28;20065;-84
2022/11/24 05:51:29;;;;;;;7.38;2.50;;;;;;;7.83;88.71;97599.41;5007000;28;20093;-84
2022/11/24 05:53:54;;;;;;;10.93;3.40;;;;;;;7.78;88.29;97601.78;5007309;28;20045;-84
2022/11/24 05:56:20;;;;;;;10.10;3.25;;;;;;;7.82;88.15;97597.81;5004754;28;20065;-84
2022/11/24 05:58:45;;;;;;;12.32;4.05;;;;;;;7.85;88.09;97599.22;5006465;28;20034;-83
2022/11/24 06:01:11;;;;;;;13.88;3.25;;;;;;;7.71;88.34;97591.31;5005471;28;20116;-84
2022/11/24 06:03:36;;;;;;;11.55;3.72;;;;;;;7.71;88.45;97601.75;5006775;28;20563;-84
2022/11/24 06:06:02;;;;;;;10.27;3.10;;;;;;;7.63;88.63;97604.53;5004743;28;20045;-84
2022/11/24 06:08:27;;;;;;;11.23;3.47;;;;;;;7.61;89.26;97606.50;5006625;28;20046;-84
2022/11/24 06:10:53;;;;;;;9.23;2.88;;;;;;;7.56;88.62;97603.69;5004585;28;20030;-83
2022/11/24 06:13:18;;;;;;;14.27;3.15;;;;;;;7.50;88.79;97597.44;5005486;28;20035;-83
2022/11/24 06:15:44;;;;;;;17.25;2.83;;;;;;;7.56;88.65;97608.91;5006303;28;20034;-83
2022/11/24 06:18:09;;;;;;;9.77;3.03;;;;;;;7.50;88.47;97617.53;5004575;28;20034;-84
2022/11/24 06:20:35;;;;;;;8.45;2.75;;;;;;;7.49;88.63;97608.06;5004675;28;20033;-83
2022/11/24 06:23:00;;;;;;;10.63;2.63;;;;;;;7.50;88.47;97599.25;5001979;28;20534;-83
2022/11/24 06:25:28;;;;;;;15.25;3.20;;;;;;;7.47;88.38;97599.63;5005972;28;20033;-83
2022/11/24 06:27:53;;;;;;;9.30;2.63;;;;;;;7.52;88.90;97602.47;5004126;28;20137;-84
2022/11/24 06:30:19;;;;;;;12.43;3.17;;;;;;;7.54;88.65;97612.69;5002526;28;20058;-83
2022/11/24 06:32:45;;;;;;;7.22;2.47;;;;;;;7.48;88.84;97601.22;5004463;28;20041;-84
2022/11/24 06:35:14;;;;;;;13.57;2.85;;;;;;;7.53;88.76;97609.28;5003789;28;20096;-85
2022/11/24 06:37:39;;;;;;;10.90;2.70;;;;;;;7.53;88.88;97618.94;5001222;28;20406;-84
2022/11/24 06:40:09;;;;;;;11.13;3.05;;;;;;;7.49;88.92;97619.28;5005301;28;20033;-85
2022/11/24 06:42:36;;;;;;;8.48;2.60;;;;;;;7.50;88.98;97618.31;5005188;28;20061;-85
2022/11/24 06:45:02;;;;;;;9.80;3.20;;;;;;;7.56;89.60;97626.34;5002203;28;20169;-84
2022/11/24 06:47:27;;;;;;;9.98;2.80;;;;;;;7.55;89.46;97627.34;5006431;28;20559;-84
2022/11/24 06:49:53;;;;;;;12.43;3.60;;;;;;;7.60;89.30;97631.00;5006142;28;20042;-85
2022/11/24 06:52:18;;;;;;;10.82;3.67;;;;;;;7.56;89.31;97628.97;5002838;28;20121;-85
2022/11/24 06:54:44;;;;;;;9.98;2.80;;;;;;;7.59;89.34;97629.41;5004625;28;20041;-85
2022/11/24 06:57:09;;;;;;;8.30;2.90;;;;;;;7.59;88.63;97634.63;5001747;28;20038;-85
2022/11/24 06:59:35;;;;;;;9.60;2.67;;;;;;;7.66;89.42;97632.84;5005298;28;20041;-85
2022/11/24 07:02:00;;;;;;;9.65;3.03;;;;;;;7.62;89.54;97631.66;5003431;28;20065;-85
2022/11/24 07:04:25;;;;;;;16.17;6.13;;;;;;;7.71;89.15;97630.47;5004512;28;20064;-85
2022/11/24 07:06:51;;;;;;;13.73;5.68;;;;;;;7.72;89.28;97639.91;4993967;28;20048;-84
2022/11/24 07:09:16;;;;;;;12.52;7.70;;;;;;;7.76;89.69;97648.97;5004592;28;20084;-84
2022/11/24 07:11:42;;;;;;;8.75;4.10;;;;;;;7.82;89.71;97654.44;5001654;28;20042;-84
2022/11/24 07:14:08;;;;;;;11.38;3.28;;;;;;;7.86;89.48;97650.44;4997528;28;20089;-84
2022/11/24 07:16:35;;;;;;;7.45;2.80;;;;;;;7.90;89.33;97655.06;5001992;28;20117;-85
2022/11/24 07:19:01;;;;;;;10.65;3.00;;;;;;;7.93;89.08;97651.28;5001867;28;20040;-85
2022/11/24 07:21:29;;;;;;;7.68;3.22;;;;;;;7.96;88.56;97656.09;5000499;28;20030;-84
2022/11/24 07:23:56;;;;;;;8.73;2.90;;;;;;;7.95;88.38;97664.94;5004190;28;20049;-85
2022/11/24 07:26:23;;;;;;;10.60;3.30;;;;;;;7.93;88.31;97665.16;5002949;28;20034;-84
2022/11/24 07:28:49;;;;;;;12.05;3.97;;;;;;;7.85;87.99;97660.06;5001012;28;20048;-84
2022/11/24 07:31:23;;;;;;;8.70;3.95;;;;;;;7.88;88.05;97671.94;5004477;28;20494;-84
2022/11/24 07:33:51;;;;;;;10.13;3.22;;;;;;;7.79;87.44;97669.47;5003293;28;20053;-84
2022/11/24 07:36:17;;;;;;;12.27;3.03;;;;;;;7.76;88.27;97677.69;5001815;28;20128;-84
2022/11/24 07:38:42;;;;;;;9.98;3.35;;;;;;;7.79;87.97;97681.72;5000076;28;20676;-84
2022/11/24 07:41:11;;;;;;;8.15;3.47;;;;;;;7.83;88.15;97682.16;5002222;28;20072;-84
2022/11/24 07:43:38;;;;;;;8.88;3.08;;;;;;;7.81;87.45;97682.34;5001889;28;20473;-85
2022/11/24 07:46:06;;;;;;;9.45;3.38;;;;;;;7.96;87.43;97693.47;4999979;28;20042;-84
2022/11/24 07:48:33;;;;;;;8.90;3.35;;;;;;;8.08;87.02;97698.97;5002918;28;20050;-83
2022/11/24 07:51:01;;;;;;;10.52;4.00;;;;;;;8.05;86.17;97675.84;4999881;28;20113;-83
2022/11/24 07:53:27;;;;;;;8.98;2.70;;;;;;;8.28;85.56;97692.03;4999948;28;20022;-83
2022/11/24 07:56:02;;;;;;;9.32;3.17;;;;;;;8.33;85.58;97694.84;5002227;28;20038;-83
2022/11/24 07:58:30;;;;;;;7.82;2.42;;;;;;;8.43;85.20;97689.31;5017353;28;20113;-83
2022/11/24 08:00:56;;;;;;;11.48;3.63;;;;;;;8.50;85.21;97689.31;5001747;28;20041;-81
2022/11/24 08:03:22;;;;;;;6.63;2.35;;;;;;;8.57;85.20;97688.34;5005054;28;20070;-82
2022/11/24 08:05:59;;;;;;;12.48;2.70;;;;;;;8.63;83.69;97689.34;5001485;28;20037;-81
2022/11/24 08:08:25;;;;;;;10.05;2.53;;;;;;;8.71;84.09;97689.19;5003118;28;20041;-81
2022/11/24 08:10:51;;;;;;;7.20;2.65;;;;;;;8.78;83.04;97681.38;5004047;28;20034;-82
2022/11/24 08:13:18;;;;;;;7.03;2.92;;;;;;;8.82;83.17;97683.41;5000878;28;20064;-82
2022/11/24 08:15:44;;;;;;;8.77;2.63;;;;;;;8.83;83.23;97692.84;5000849;28;20033;-82
2022/11/24 08:18:10;;;;;;;10.00;2.85;;;;;;;8.88;83.82;97694.88;5002710;28;20056;-82
2022/11/24 08:20:36;;;;;;;6.25;2.53;;;;;;;8.87;82.62;97695.06;5000936;28;20041;-81
2022/11/24 08:23:02;;;;;;;5.35;2.28;;;;;;;8.91;83.14;97702.31;5002292;28;20482;-81
2022/11/24 08:25:32;;;;;;;6.50;2.13;;;;;;;8.98;82.55;97689.25;5000293;28;20062;-81
2022/11/24 08:28:03;;;;;;;9.27;2.28;;;;;;;9.05;82.41;97695.28;5000748;28;20047;-81
2022/11/24 08:30:29;;;;;;;8.75;3.00;;;;;;;9.18;nan;97694.53;5001341;28;20047;-81
2022/11/24 08:32:59;;;;;;;7.45;1.95;;;;;;;9.20;81.94;97690.69;5000921;28;20052;-81
2022/11/24 08:35:27;;;;;;;6.68;2.08;;;;;;;9.27;82.16;97696.72;5001213;28;20124;-80
2022/11/24 08:37:53;;;;;;;8.00;2.22;;;;;;;9.42;82.20;97690.50;5000677;28;20036;-82
2022/11/24 08:40:19;;;;;;;9.18;2.58;;;;;;;9.45;81.23;97692.69;4999965;28;20034;-82
2022/11/24 08:42:44;;;;;;;5.25;1.70;;;;;;;9.45;79.47;97693.50;5001812;28;20037;-81
2022/11/24 08:45:10;;;;;;;7.35;1.73;;;;;;;9.49;80.23;97699.16;4997736;28;20041;-81
2022/11/24 08:47:36;;;;;;;3.78;1.30;;;;;;;9.51;78.92;97697.13;5001536;28;20042;-81
2022/11/24 08:50:02;;;;;;;5.65;2.00;;;;;;;9.42;78.44;97693.91;5002827;28;20050;-81
2022/11/24 08:52:27;;;;;;;8.55;1.88;;;;;;;9.43;78.26;97689.50;4998242;28;20545;-85
2022/11/24 08:54:53;;;;;;;5.75;1.80;;;;;;;9.47;79.23;97701.16;5001190;28;20034;-80
2022/11/24 08:57:18;;;;;;;6.18;1.65;;;;;;;9.54;80.47;97701.97;5001689;28;20061;-80
2022/11/24 08:59:45;;;;;;;6.05;2.00;;;;;;;9.38;79.10;97692.69;5000886;28;20116;-80
2022/11/24 09:02:13;;;;;;;7.60;1.70;;;;;;;9.41;79.63;97697.53;5000869;28;20029;-80
2022/11/24 09:04:39;;;;;;;7.65;1.63;;;;;;;9.43;80.07;97698.16;4998324;28;20036;-81
2022/11/24 09:07:05;;;;;;;6.28;1.70;;;;;;;9.38;79.59;97698.75;5001630;28;20037;-80
2022/11/24 09:09:30;;;;;;;6.00;1.40;;;;;;;9.45;80.87;97706.59;5002486;28;20034;-80
2022/11/24 09:11:56;;;;;;;8.32;1.80;;;;;;;9.34;78.75;97702.75;5002437;28;20072;-80
2022/11/24 09:14:21;;;;;;;6.03;1.73;;;;;;;9.23;79.42;97719.06;5000475;28;20042;-80
2022/11/24 09:16:47;;;;;;;8.07;1.65;;;;;;;9.09;79.08;97714.81;5001788;28;20494;-80
2022/11/24 09:19:12;;;;;;;6.75;1.45;;;;;;;9.01;78.99;97728.09;5004881;28;20087;-80
2022/11/24 09:21:38;;;;;;;6.47;1.75;;;;;;;8.98;80.38;97728.47;5004191;28;20159;-80
2022/11/24 09:24:06;;;;;;;8.48;1.90;;;;;;;8.92;80.01;97724.03;5003135;28;20026;-79
2022/11/24 09:26:35;;;;;;;9.02;1.80;;;;;;;8.87;80.92;97718.59;5004168;28;20420;-80
2022/11/24 09:29:03;;;;;;;6.38;2.03;;;;;;;8.89;79.66;97729.69;5004112;28;20026;-79
2022/11/24 09:31:36;;;;;;;5.35;1.85;;;;;;;8.82;79.91;97735.69;5003102;28;20128;-80
2022/11/24 09:34:05;;;;;;;8.13;2.38;;;;;;;8.86;80.63;97736.09;5003836;28;20381;-80
2022/11/24 09:36:31;;;;;;;3.88;1.58;;;;;;;8.81;82.98;97743.72;5003049;28;20034;-80
2022/11/24 09:38:58;;;;;;;6.53;2.08;;;;;;;8.54;85.94;97733.19;5005829;28;20157;-80
2022/11/24 09:44:39;;;;;;;5.28;1.65;;;;;;;8.37;89.26;97739.72;5018905;28;20041;-80
2022/11/24 09:47:35;;;;;;;5.97;2.13;;;;;;;8.39;88.20;97735.09;5004229;28;20494;-80
2022/11/24 09:50:12;;;;;;;8.65;2.80;;;;;;;8.41;87.64;97748.00;5003815;28;20537;-80
2022/11/24 09:53:00;;;;;;;6.15;1.70;;;;;;;8.38;86.45;97738.72;5003497;28;20493;-80
2022/11/24 09:55:34;;;;;;;5.25;1.80;;;;;;;8.43;87.04;97736.34;5004706;28;20152;-80
2022/11/24 09:58:11;;;;;;;5.35;1.40;;;;;;;8.43;86.04;97740.75;5003653;28;20029;-79
2022/11/24 10:00:38;;;;;;;6.53;2.53;;;;;;;8.39;84.98;97734.31;5002195;28;20084;-79
2022/11/24 10:03:04;;;;;;;5.15;2.20;;;;;;;8.46;84.77;97741.19;5004884;28;20401;-80
2022/11/24 10:05:36;;;;;;;4.55;1.75;;;;;;;8.47;84.75;97750.66;5003351;28;20080;-79
2022/11/24 10:08:32;;;;;;;7.85;1.92;;;;;;;8.28;88.80;97749.53;5001932;28;20123;-80
2022/11/24 10:11:10;;;;;;;4.55;1.65;;;;;;;8.06;88.18;97750.59;5002748;28;20041;-80
2022/11/24 10:14:05;;;;;;;6.28;1.98;;;;;;;7.95;88.93;97761.56;5003693;28;20053;-80
2022/11/24 10:16:37;;;;;;;6.68;1.65;;;;;;;7.89;90.56;97764.94;5003078;28;20168;-80
2022/11/24 10:19:29;;;;;;;6.60;1.90;;;;;;;7.82;94.51;97764.09;5002032;28;20083;-80
2022/11/24 10:22:07;;;;;;;6.80;1.90;;;;;;;7.89;96.55;97770.16;5003427;28;20025;-80
2022/11/24 10:25:06;;;;;;;7.53;2.45;;;;;;;7.82;96.46;97758.88;5004112;28;20045;-80
2022/11/24 10:28:00;;;;;;;8.40;2.30;;;;;;;7.77;96.89;97762.84;5002698;28;20049;-80
2022/11/24 10:30:27;;;;;;;5.18;1.92;;;;;;;7.73;96.81;97764.22;4996372;28;20121;-81
2022/11/24 10:33:20;;;;;;;7.00;2.00;;;;;;;7.76;95.71;97770.88;5002513;28;20044;-81
2022/11/24 10:35:59;;;;;;;3.30;1.55;;;;;;;7.82;94.26;97769.31;5003366;28;20042;-81
2022/11/24 10:39:04;;;;;;;4.28;1.88;;;;;;;7.84;93.66;97772.53;5003342;28;20041;-81
2022/11/24 10:41:45;;;;;;;3.33;1.65;;;;;;;7.88;94.25;97763.34;5002359;28;20069;-81
2022/11/24 10:44:15;;;;;;;7.10;1.70;;;;;;;7.77;93.34;97767.25;5000634;28;20034;-81
2022/11/24 10:46:41;;;;;;;5.28;1.98;;;;;;;7.60;95.23;97771.94;5003867;28;20084;-81
2022/11/24 10:49:19;;;;;;;5.78;2.55;;;;;;;7.58;97.95;97773.94;5019507;28;20156;-81
2022/11/24 10:52:11;;;;;;;3.85;1.90;;;;;;;7.57;98.60;97766.31;5002342;28;20075;-81
2022/11/24 10:54:54;;;;;;;5.90;1.65;;;;;;;7.59;98.56;97770.34;5004375;28;20035;-81
2022/11/24 10:57:32;;;;;;;3.70;1.73;;;;;;;7.64;97.96;97777.59;5002930;28;20041;-81
2022/11/24 10:59:59;;;;;;;6.63;2.55;;;;;;;7.68;97.43;97769.22;5002644;28;20044;-81
2022/11/24 11:02:39;;;;;;;3.35;1.77;;;;;;;7.73;96.27;97772.03;5001881;28;20496;-80
2022/11/24 11:05:31;;;;;;;6.00;2.00;;;;;;;7.82;95.78;97769.31;5002713;28;20029;-80
2022/11/24 11:08:22;;;;;;;6.90;2.08;;;;;;;7.91;95.47;97774.19;5001140;28;20038;-81
2022/11/24 11:11:20;;;;;;;5.00;1.90;;;;;;;7.96;94.06;97777.03;4997547;28;20499;-81
2022/11/24 11:13:56;;;;;;;5.47;2.20;;;;;;;8.02;94.18;97771.06;5004447;28;20026;-82
2022/11/24 11:16:37;;;;;;;4.68;2.20;;;;;;;8.09;93.85;97778.13;5003296;28;20774;-82
2022/11/24 11:19:24;;;;;;;7.35;2.17;;;;;;;8.03;93.61;97777.06;5002934;28;20042;-81
2022/11/24 11:22:22;;;;;;;7.38;2.47;;;;;;;8.02;93.15;97772.84;5001530;28;20034;-81
2022/11/24 11:25:16;;;;;;;2.83;1.73;;;;;;;8.18;92.67;97783.00;4999914;28;20141;-81
2022/11/24 11:27:41;;;;;;;4.43;1.80;;;;;;;8.21;92.46;97784.44;4999485;28;20037;-81
2022/11/24 11:30:27;;;;;;;5.82;1.73;;;;;;;8.26;92.22;97776.81;5002380;28;20061;-81
2022/11/24 11:32:58;;;;;;;6.35;1.85;;;;;;;8.32;91.86;97771.63;5001201;28;20052;-81
2022/11/24 11:35:27;;;;;;;4.45;2.22;;;;;;;8.31;90.70;97775.25;5005849;28;20083;-81
2022/11/24 11:38:00;;;;;;;4.47;1.90;;;;;;;8.31;90.82;97771.84;5001434;28;20040;-81
2022/11/24 11:40:30;;;;;;;4.45;2.42;;;;;;;8.35;90.84;97778.28;5001599;28;20034;-80
2022/11/24 11:43:11;;;;;;;4.68;2.28;;;;;;;8.41;91.00;97779.38;5005496;28;20685;-81
2022/11/24 11:45:44;;;;;;;3.95;1.67;;;;;;;8.50;88.73;97783.41;5002406;28;20053;-81
2022/11/24 11:48:32;;;;;;;3.88;1.67;;;;;;;8.51;87.46;97790.25;5004108;28;20041;-81
2022/11/24 11:51:35;;;;;;;6.53;1.80;;;;;;;8.55;87.70;97786.25;5001158;28;20037;-81
2022/11/24 11:54:37;;;;;;;3.95;1.40;;;;;;;8.56;86.59;97787.88;4999340;28;20030;-81